Time;durP1;ratioP1;P1;durP2;ratioP2;P2;SDS_P1;SDS_P2;PMS_P1;PMS_P2;Temp;Humidity;BMP_temperature;BMP_pressure;BME280_temperature;BME280_humidity;BME280_pressure;Samples;Min_cycle;Max_cycle;Signal;HPM_P1;HPM_P2
2023/05/11 00:02:13;;;;;;;5.15;4.15;;;13.30;99.90;;;;;;2602610;54;20403;31
2023/05/11 00:04:59;;;;;;;6.90;3.85;;;13.20;99.90;;;;;;2602241;54;20853;31
2023/05/11 00:07:37;;;;;;;8.50;4.68;;;13.30;99.90;;;;;;2602567;54;19949;31
2023/05/11 00:10:11;;;;;;;9.57;4.43;;;13.10;99.90;;;;;;2602422;54;21496;31
2023/05/11 00:12:55;;;;;;;7.07;4.32;;;13.10;99.90;;;;;;2601832;54;20921;31
2023/05/11 00:15:33;;;;;;;8.80;4.35;;;13.10;99.90;;;;;;2604553;46;20038;31
2023/05/11 00:18:11;;;;;;;9.52;4.78;;;13.00;99.90;;;;;;2602818;54;20062;31
2023/05/11 00:20:53;;;;;;;8.57;4.80;;;12.90;99.90;;;;;;2602591;54;20770;31
2023/05/11 00:23:30;;;;;;;8.48;4.95;;;12.80;99.90;;;;;;2604737;46;20039;31
2023/05/11 00:26:12;;;;;;;8.33;4.47;;;12.80;99.90;;;;;;2603368;54;20837;31
2023/05/11 00:29:03;;;;;;;6.50;3.85;;;12.70;99.90;;;;;;2621594;46;20061;31
2023/05/11 00:31:40;;;;;;;10.15;5.00;;;12.60;99.90;;;;;;2603293;54;20155;31
2023/05/11 00:34:23;;;;;;;8.32;4.57;;;12.50;99.90;;;;;;2603376;54;20157;31
2023/05/11 00:37:07;;;;;;;6.25;4.68;;;12.50;99.90;;;;;;2603254;54;20069;31
2023/05/11 00:39:48;;;;;;;5.97;4.60;;;12.50;99.90;;;;;;2603253;54;20841;31
2023/05/11 00:42:28;;;;;;;7.40;4.70;;;12.50;99.90;;;;;;2617705;46;20053;31
2023/05/11 00:45:15;;;;;;;5.85;4.50;;;12.40;99.90;;;;;;2602335;54;20038;31
2023/05/11 00:48:04;;;;;;;6.10;3.50;;;12.40;99.90;;;;;;2603026;54;20080;31
2023/05/11 00:50:47;;;;;;;6.20;4.78;;;12.30;99.90;;;;;;2621494;46;20030;31
2023/05/11 00:53:24;;;;;;;6.80;4.50;;;12.30;99.90;;;;;;2602994;54;20045;31
2023/05/11 00:56:03;;;;;;;9.00;4.65;;;12.30;99.90;;;;;;2622237;46;20070;31
2023/05/11 00:58:41;;;;;;;6.13;4.43;;;12.20;99.90;;;;;;2603212;54;20919;31
2023/05/11 01:01:24;;;;;;;8.15;4.10;;;12.20;99.90;;;;;;2684278;31;20402;31
2023/05/11 01:04:01;;;;;;;8.85;4.35;;;12.10;99.90;;;;;;2603214;54;20038;31
2023/05/11 01:06:45;;;;;;;8.00;4.30;;;12.10;99.90;;;;;;2621293;46;20901;31
2023/05/11 01:09:29;;;;;;;8.00;4.65;;;12.10;99.90;;;;;;2602939;54;20044;31
2023/05/11 01:12:17;;;;;;;10.07;4.40;;;12.00;99.90;;;;;;2602959;54;20038;31
2023/05/11 01:14:56;;;;;;;5.65;4.30;;;12.00;99.90;;;;;;2620887;46;20255;31
2023/05/11 01:17:40;;;;;;;8.15;4.57;;;12.00;99.90;;;;;;2621393;46;20857;31
2023/05/11 01:20:25;;;;;;;6.25;4.60;;;11.90;99.90;;;;;;2603077;54;19946;31
2023/05/11 01:29:30;;;;;;;7.65;4.47;;;11.80;99.90;;;;;;2602751;54;20057;31
2023/05/11 01:32:16;;;;;;;5.13;3.97;;;11.80;99.90;;;;;;2602839;54;20149;31
2023/05/11 01:34:57;;;;;;;8.55;4.80;;;11.70;99.90;;;;;;2620694;46;20054;31
2023/05/11 01:37:35;;;;;;;7.65;4.50;;;11.70;99.90;;;;;;2603020;54;20195;31
2023/05/11 01:40:09;;;;;;;8.95;5.00;;;11.70;99.90;;;;;;2603229;54;19972;31
2023/05/11 01:42:48;;;;;;;9.75;4.68;;;11.70;99.90;;;;;;2620383;46;20030;31
2023/05/11 01:45:29;;;;;;;6.38;4.22;;;11.70;99.90;;;;;;2602387;54;20038;31
2023/05/11 01:48:15;;;;;;;5.80;4.70;;;11.60;99.90;;;;;;2601943;54;20039;31
2023/05/11 01:50:52;;;;;;;7.30;4.90;;;11.60;99.90;;;;;;2602470;54;20855;31
2023/05/11 01:53:30;;;;;;;8.65;5.15;;;11.50;99.90;;;;;;2603096;54;20045;31
2023/05/11 01:56:12;;;;;;;7.30;4.45;;;11.50;99.90;;;;;;2602771;54;20875;31
2023/05/11 01:58:53;;;;;;;6.35;4.97;;;11.50;99.90;;;;;;2602859;54;20022;31
2023/05/11 02:01:30;;;;;;;9.27;4.90;;;11.50;99.90;;;;;;2602083;54;20026;31
2023/05/11 02:04:09;;;;;;;10.93;4.97;;;11.50;99.90;;;;;;2603056;54;20895;31
2023/05/11 02:06:50;;;;;;;7.90;5.07;;;11.50;99.90;;;;;;2602211;54;20289;31
2023/05/11 02:09:26;;;;;;;7.45;4.85;;;11.50;99.90;;;;;;2602253;54;20451;31
2023/05/11 02:12:02;;;;;;;6.80;4.40;;;11.50;99.90;;;;;;2602867;54;20073;31
2023/05/11 02:14:50;;;;;;;6.70;4.72;;;11.50;99.90;;;;;;2621319;46;20143;31
2023/05/11 02:17:27;;;;;;;9.30;4.70;;;11.50;99.90;;;;;;2602958;54;20469;31
2023/05/11 02:20:08;;;;;;;8.75;4.60;;;11.50;99.90;;;;;;2611796;46;20109;31
2023/05/11 02:22:46;;;;;;;7.90;4.85;;;11.50;99.90;;;;;;2617611;39;20437;31
2023/05/11 02:25:27;;;;;;;6.22;4.20;;;11.50;99.90;;;;;;2602097;54;20077;31
2023/05/11 02:28:02;;;;;;;7.72;4.32;;;11.50;99.90;;;;;;2602256;54;20839;31
2023/05/11 02:30:43;;;;;;;6.07;4.63;;;11.40;99.90;;;;;;2602178;54;20925;31
2023/05/11 02:33:22;;;;;;;6.32;4.43;;;11.40;99.90;;;;;;2601983;54;20866;31
2023/05/11 02:36:05;;;;;;;7.38;4.35;;;11.40;99.90;;;;;;2610400;46;20042;31
2023/05/11 02:38:46;;;;;;;6.70;5.00;;;11.30;99.90;;;;;;2607829;39;20364;31
2023/05/11 02:41:28;;;;;;;7.95;4.55;;;11.40;99.90;;;;;;2625975;39;21437;31
2023/05/11 02:44:05;;;;;;;7.35;4.75;;;11.30;99.90;;;;;;2602861;54;20518;31
2023/05/11 02:46:42;;;;;;;7.25;4.25;;;11.30;99.90;;;;;;2608329;39;20547;31
2023/05/11 02:49:22;;;;;;;10.23;5.00;;;11.30;99.90;;;;;;2602751;54;20414;31
2023/05/11 02:51:56;;;;;;;8.50;4.55;;;11.30;99.90;;;;;;2602739;54;20119;31
2023/05/11 02:54:37;;;;;;;9.00;4.80;;;11.30;99.90;;;;;;2606067;46;20033;31
2023/05/11 02:57:18;;;;;;;6.77;4.60;;;11.30;99.90;;;;;;2602750;54;20023;31
2023/05/11 02:59:59;;;;;;;9.10;4.50;;;11.30;99.90;;;;;;2620855;46;21221;31
2023/05/11 03:02:35;;;;;;;7.88;4.72;;;11.30;99.90;;;;;;2602815;54;20030;31
2023/05/11 03:05:23;;;;;;;11.90;4.90;;;11.30;99.90;;;;;;2602752;54;20026;31
2023/05/11 03:08:00;;;;;;;6.50;4.55;;;11.30;99.90;;;;;;2603026;54;20086;31
2023/05/11 03:10:39;;;;;;;8.70;4.63;;;11.30;99.90;;;;;;2602817;54;20430;31
2023/05/11 03:13:18;;;;;;;8.38;5.00;;;11.30;99.90;;;;;;2606507;39;20354;31
2023/05/11 03:15:58;;;;;;;6.60;4.53;;;11.30;99.90;;;;;;2601438;54;20879;31
2023/05/11 03:18:39;;;;;;;7.25;4.90;;;11.20;99.90;;;;;;2601484;54;21571;31
2023/05/11 03:21:17;;;;;;;7.55;5.35;;;11.20;99.90;;;;;;2608194;39;20300;31
2023/05/11 03:23:53;;;;;;;10.93;4.88;;;11.20;99.90;;;;;;2621209;47;20949;31
2023/05/11 03:26:32;;;;;;;8.83;4.90;;;11.20;99.90;;;;;;2608239;39;20315;31
2023/05/11 03:29:11;;;;;;;8.75;4.90;;;11.20;99.90;;;;;;2601739;54;20544;31
2023/05/11 03:31:49;;;;;;;7.85;4.82;;;11.20;99.90;;;;;;2602624;54;20042;31
2023/05/11 03:34:31;;;;;;;8.47;5.03;;;11.10;99.90;;;;;;2602868;54;20028;31
2023/05/11 03:37:09;;;;;;;7.32;5.13;;;11.20;99.90;;;;;;2602658;54;20918;31
2023/05/11 03:39:50;;;;;;;11.00;5.20;;;11.20;99.90;;;;;;2602636;54;20125;31
2023/05/11 03:42:31;;;;;;;8.27;5.45;;;11.20;99.90;;;;;;2620933;47;20009;31
2023/05/11 03:45:13;;;;;;;9.20;5.33;;;11.20;99.90;;;;;;2602688;54;20027;31
2023/05/11 03:47:51;;;;;;;7.65;4.60;;;11.20;99.90;;;;;;2601852;54;20884;31
2023/05/11 03:50:29;;;;;;;8.23;5.32;;;11.20;99.90;;;;;;2603300;54;20038;31
2023/05/11 03:53:11;;;;;;;10.10;5.20;;;11.20;99.90;;;;;;2603325;54;20145;31
2023/05/11 03:55:51;;;;;;;6.82;5.03;;;11.20;99.90;;;;;;2621811;46;20046;31
2023/05/11 03:58:34;;;;;;;12.02;5.80;;;11.20;99.90;;;;;;2621433;46;20910;31
2023/05/11 04:01:11;;;;;;;11.80;5.72;;;11.10;99.90;;;;;;2622174;46;20772;31
2023/05/11 04:03:51;;;;;;;10.55;5.40;;;11.10;99.90;;;;;;2603433;54;20027;31
2023/05/11 04:06:31;;;;;;;10.77;5.68;;;11.10;99.90;;;;;;2603327;54;20034;31
2023/05/11 04:09:16;;;;;;;7.37;5.20;;;11.10;99.90;;;;;;2603382;54;20759;31
2023/05/11 04:11:52;;;;;;;10.20;6.10;;;11.10;99.90;;;;;;2603480;54;20254;31
2023/05/11 04:14:36;;;;;;;13.00;5.70;;;11.10;99.90;;;;;;2607650;46;20938;31
2023/05/11 04:17:14;;;;;;;10.55;5.75;;;11.10;99.90;;;;;;2603228;54;20034;31
2023/05/11 04:19:55;;;;;;;11.23;5.77;;;11.20;99.90;;;;;;2621750;46;20113;31
2023/05/11 04:22:33;;;;;;;10.30;5.82;;;11.10;99.90;;;;;;2603243;54;20258;31
2023/05/11 04:25:12;;;;;;;9.00;6.05;;;11.10;99.90;;;;;;2603190;54;20392;31
2023/05/11 04:27:50;;;;;;;9.95;5.88;;;11.10;99.90;;;;;;2603274;54;20847;31
2023/05/11 04:30:32;;;;;;;11.40;6.78;;;11.20;99.90;;;;;;2603431;54;21468;31
2023/05/11 04:33:08;;;;;;;8.02;5.07;;;11.20;99.90;;;;;;2602456;54;20888;31
2023/05/11 04:35:51;;;;;;;8.18;5.25;;;11.30;99.90;;;;;;2602526;54;20019;31
2023/05/11 04:38:37;;;;;;;12.53;6.70;;;11.30;99.90;;;;;;2607066;39;20389;31
2023/05/11 04:41:18;;;;;;;9.15;5.88;;;11.30;99.90;;;;;;2620746;46;20572;31
2023/05/11 04:43:56;;;;;;;10.40;5.77;;;11.30;99.90;;;;;;2621766;46;20029;31
2023/05/11 04:46:43;;;;;;;12.33;6.27;;;11.40;99.90;;;;;;2603277;54;20027;31
2023/05/11 04:49:18;;;;;;;7.80;5.20;;;11.40;99.90;;;;;;2603150;54;19935;31
2023/05/11 04:52:01;;;;;;;8.95;5.25;;;11.40;99.90;;;;;;2603106;54;20042;31
2023/05/11 04:54:41;;;;;;;11.05;6.03;;;11.40;99.90;;;;;;2602954;54;20034;31
2023/05/11 04:57:18;;;;;;;10.63;5.47;;;11.40;99.90;;;;;;2618820;39;21419;31
2023/05/11 04:59:58;;;;;;;7.70;5.55;;;11.50;99.90;;;;;;2649704;39;21398;31
2023/05/11 05:02:39;;;;;;;10.03;5.80;;;11.50;99.90;;;;;;2603271;54;20868;31
2023/05/11 05:05:13;;;;;;;12.00;6.20;;;11.60;99.90;;;;;;2603414;54;20034;31
2023/05/11 05:07:50;;;;;;;12.23;6.25;;;11.60;99.90;;;;;;2621579;46;20089;31
2023/05/11 05:10:27;;;;;;;10.20;5.57;;;11.60;99.90;;;;;;2603203;54;20101;31
2023/05/11 05:13:03;;;;;;;9.30;5.85;;;11.70;99.90;;;;;;2621433;46;20374;31
2023/05/11 05:15:38;;;;;;;;;;;11.70;99.90;;;;;;2603200;54;20141;31
2023/05/11 05:18:19;;;;;;;10.10;5.85;;;11.80;99.90;;;;;;2621206;46;20779;31
2023/05/11 05:21:01;;;;;;;11.15;6.10;;;11.80;99.90;;;;;;2602247;54;20051;31
2023/05/11 05:23:39;;;;;;;13.55;6.05;;;11.90;99.90;;;;;;2602629;54;20042;31
2023/05/11 05:26:15;;;;;;;12.50;5.68;;;12.00;99.90;;;;;;2603188;54;20026;31
2023/05/11 05:28:52;;;;;;;10.23;5.87;;;12.10;99.90;;;;;;2602950;54;20068;31
2023/05/11 05:31:34;;;;;;;9.15;5.60;;;12.20;99.90;;;;;;2602031;54;20035;31
2023/05/11 05:34:15;;;;;;;142.10;14.05;;;12.20;99.90;;;;;;2602853;54;20828;31
2023/05/11 05:36:51;;;;;;;14.82;5.95;;;12.30;99.90;;;;;;2621516;46;20033;31
2023/05/11 05:39:27;;;;;;;16.77;5.70;;;12.40;99.90;;;;;;2603050;54;20915;31
2023/05/11 05:42:05;;;;;;;12.30;5.95;;;12.40;99.90;;;;;;2621870;46;20053;31
2023/05/11 05:44:41;;;;;;;10.07;5.70;;;12.50;99.90;;;;;;2617998;39;21464;31
2023/05/11 05:47:17;;;;;;;8.57;5.13;;;12.60;99.90;;;;;;2603136;54;20678;31
2023/05/11 05:49:56;;;;;;;;;;;12.60;99.90;;;;;;2602909;54;20265;31
2023/05/11 05:52:31;;;;;;;15.43;6.07;;;12.70;99.90;;;;;;2602941;54;19939;31
2023/05/11 05:55:08;;;;;;;11.80;5.70;;;12.70;99.90;;;;;;2602744;54;20875;31
2023/05/11 05:57:49;;;;;;;10.52;5.65;;;12.80;99.90;;;;;;2620758;46;20863;31
2023/05/11 06:00:29;;;;;;;10.32;5.65;;;12.80;99.90;;;;;;2621424;46;19935;31
2023/05/11 06:03:14;;;;;;;8.80;5.18;;;12.90;99.90;;;;;;2603040;54;20959;31
2023/05/11 06:05:53;;;;;;;10.80;5.70;;;12.90;99.90;;;;;;2602347;54;19934;31
2023/05/11 06:08:31;;;;;;;11.98;5.30;;;13.00;99.90;;;;;;2603293;54;20030;31
2023/05/11 06:11:09;;;;;;;8.45;6.20;;;13.10;99.90;;;;;;2621222;46;20029;31
2023/05/11 06:13:48;;;;;;;13.05;5.47;;;13.20;99.90;;;;;;2603091;54;20022;31
2023/05/11 06:16:26;;;;;;;17.60;6.28;;;13.30;99.90;;;;;;2621528;46;20037;31
2023/05/11 06:19:03;;;;;;;10.20;5.15;;;13.40;99.90;;;;;;2602940;54;20042;31
2023/05/11 06:21:41;;;;;;;9.27;5.90;;;13.50;99.90;;;;;;2602939;54;20758;31
2023/05/11 06:24:19;;;;;;;10.68;6.00;;;13.60;99.90;;;;;;2602947;54;20415;31
2023/05/11 06:26:56;;;;;;;13.82;5.93;;;13.80;99.90;;;;;;2603004;54;20866;31
2023/05/11 06:29:36;;;;;;;9.00;5.40;;;14.00;99.90;;;;;;2602871;54;20026;31
2023/05/11 06:32:16;;;;;;;7.25;5.35;;;14.20;99.90;;;;;;2602999;54;20046;31
2023/05/11 06:34:52;;;;;;;10.55;5.22;;;14.30;99.90;;;;;;2603037;54;20904;31
2023/05/11 06:37:35;;;;;;;11.68;5.63;;;14.50;99.90;;;;;;2621197;46;20491;31
2023/05/11 06:40:14;;;;;;;9.82;5.50;;;14.70;99.90;;;;;;2602823;54;20027;31
2023/05/11 06:42:52;;;;;;;10.88;5.45;;;14.80;99.90;;;;;;2621508;46;20026;31
2023/05/11 06:45:31;;;;;;;8.63;5.60;;;15.00;99.90;;;;;;2602952;54;20831;31
2023/05/11 06:48:08;;;;;;;12.27;5.30;;;15.20;99.90;;;;;;2602081;54;21038;31
2023/05/11 06:50:48;;;;;;;11.50;5.85;;;15.20;99.90;;;;;;2601801;54;20835;31
2023/05/11 06:53:27;;;;;;;7.38;5.30;;;15.60;99.90;;;;;;2620811;46;20042;31
2023/05/11 06:56:05;;;;;;;9.70;5.75;;;16.30;99.90;;;;;;2621375;46;20042;31
2023/05/11 06:58:45;;;;;;;8.43;5.30;;;16.80;99.90;;;;;;2602775;54;20104;31
2023/05/11 07:01:27;;;;;;;9.77;5.20;;;17.30;99.90;;;;;;2621294;46;20022;31
2023/05/11 07:13:28;;;;;;;10.40;5.20;;;19.30;99.90;;;;;;2602705;54;20877;31
2023/05/11 07:16:31;;;;;;;9.05;4.85;;;19.70;99.90;;;;;;2609776;47;20069;31
2023/05/11 07:25:24;;;;;;;9.25;4.70;;;20.40;99.90;;;;;;2603601;54;19950;31
2023/05/11 07:44:13;;;;;;;7.20;3.88;;;20.90;99.90;;;;;;2621815;46;20030;31
2023/05/11 09:35:32;;;;;;;4.15;2.75;;;23.60;92.60;;;;;;2610961;54;20022;31
2023/05/11 09:38:33;;;;;;;6.60;2.33;;;23.30;92.40;;;;;;2603187;54;20097;31
2023/05/11 09:53:06;;;;;;;4.45;2.63;;;23.40;91.40;;;;;;2615711;46;20026;31
2023/05/11 09:55:41;;;;;;;4.18;2.33;;;23.20;91.80;;;;;;2620478;46;20102;31
2023/05/11 09:58:21;;;;;;;3.90;2.27;;;23.10;91.40;;;;;;2602965;54;20038;31
2023/05/11 10:01:02;;;;;;;3.90;1.75;;;22.90;90.40;;;;;;2603153;54;20043;31
2023/05/11 10:10:04;;;;;;;10.02;2.53;;;23.20;90.70;;;;;;2601328;54;20948;31
2023/05/11 10:12:45;;;;;;;4.40;2.63;;;23.00;90.90;;;;;;2620556;46;20027;31
2023/05/11 10:15:24;;;;;;;4.30;1.92;;;23.30;91.50;;;;;;2602920;54;20026;31
2023/05/11 10:20:58;;;;;;;2.53;1.30;;;23.40;85.20;;;;;;2603048;54;20030;31
2023/05/11 10:23:38;;;;;;;1.92;1.00;;;23.60;84.30;;;;;;2621594;46;20050;31
2023/05/11 10:26:20;;;;;;;2.80;1.73;;;23.70;83.80;;;;;;2602778;54;20872;31
2023/05/11 10:29:00;;;;;;;2.67;1.77;;;24.00;83.90;;;;;;2603007;54;20081;31
2023/05/11 10:31:36;;;;;;;10.77;2.10;;;23.90;83.20;;;;;;2602866;54;20089;31
2023/05/11 10:34:13;;;;;;;5.65;2.10;;;23.80;83.40;;;;;;2603090;54;20036;31
2023/05/11 11:02:00;;;;;;;2.60;1.08;;;24.00;76.10;;;;;;2602249;54;20940;31
2023/05/11 11:19:57;;;;;;;;;;;23.20;75.80;;;;;;2602319;54;20034;31
2023/05/11 11:25:55;;;;;;;3.95;1.80;;;22.90;76.50;;;;;;2602206;54;20881;31
2023/05/11 11:28:31;;;;;;;3.05;1.52;;;22.70;77.70;;;;;;2602494;54;20038;31
2023/05/11 11:31:25;;;;;;;3.03;1.50;;;22.70;77.20;;;;;;2602390;54;20885;31
2023/05/11 11:34:33;;;;;;;3.25;1.70;;;22.90;78.00;;;;;;2602820;54;20097;31
2023/05/11 11:37:21;;;;;;;3.13;1.80;;;23.00;76.60;;;;;;2602286;54;20034;31
2023/05/11 11:40:08;;;;;;;3.97;1.90;;;23.00;77.80;;;;;;2602631;54;20026;31
2023/05/11 12:32:22;;;;;;;3.17;1.75;;;23.20;79.20;;;;;;2603263;54;20054;31
2023/05/11 12:35:15;;;;;;;12.52;2.90;;;23.30;79.00;;;;;;2603171;54;20988;31
2023/05/11 12:44:13;;;;;;;3.60;2.20;;;23.10;81.70;;;;;;2602984;54;20026;31
2023/05/11 12:50:03;;;;;;;2.80;2.55;;;22.70;82.80;;;;;;2616739;46;20085;31
2023/05/11 13:30:05;;;;;;;3.35;2.10;;;21.80;85.10;;;;;;2603337;54;20066;31
2023/05/11 13:38:13;;;;;;;3.93;2.23;;;21.60;84.70;;;;;;2602162;54;20075;31
2023/05/11 13:40:56;;;;;;;4.00;2.10;;;21.60;85.10;;;;;;2621640;46;20246;31
2023/05/11 13:43:44;;;;;;;2.20;1.70;;;21.70;85.00;;;;;;2603138;54;20089;31
2023/05/11 13:49:36;;;;;;;4.20;1.60;;;21.60;84.00;;;;;;2602102;54;20784;31
2023/05/11 13:52:20;;;;;;;5.30;2.00;;;21.60;84.90;;;;;;2605064;46;20113;31
2023/05/11 13:54:59;;;;;;;5.95;1.98;;;21.70;84.70;;;;;;2601842;54;20042;31
2023/05/11 13:57:38;;;;;;;3.57;2.20;;;21.70;83.30;;;;;;2601841;54;20866;31
2023/05/11 14:00:16;;;;;;;5.78;2.35;;;21.70;83.20;;;;;;2602305;54;20066;31
2023/05/11 14:02:51;;;;;;;5.50;2.10;;;21.90;83.40;;;;;;2603076;54;20089;31
2023/05/11 14:05:46;;;;;;;2.60;1.73;;;22.00;84.80;;;;;;2603126;54;20048;31
2023/05/11 14:08:29;;;;;;;2.22;1.75;;;22.10;83.30;;;;;;2604776;46;20105;31
2023/05/11 14:11:05;;;;;;;2.50;2.27;;;22.10;81.90;;;;;;2602963;54;20050;31
2023/05/11 14:13:44;;;;;;;3.80;1.80;;;22.10;83.00;;;;;;2602949;54;19934;31
2023/05/11 14:16:24;;;;;;;3.63;1.70;;;22.20;84.60;;;;;;2605836;46;20766;31
2023/05/11 14:19:06;;;;;;;5.00;1.60;;;22.30;83.00;;;;;;2620336;46;20025;31
2023/05/11 14:25:18;;;;;;;3.30;2.00;;;22.10;81.40;;;;;;2602766;54;20026;31
2023/05/11 14:27:55;;;;;;;4.30;2.00;;;22.00;81.80;;;;;;2620727;46;20041;31
2023/05/11 14:30:37;;;;;;;5.85;2.20;;;22.00;82.30;;;;;;2621458;46;20023;31
2023/05/11 14:33:15;;;;;;;3.77;2.13;;;21.90;80.10;;;;;;2602913;54;20026;31
2023/05/11 14:35:56;;;;;;;3.87;1.90;;;21.80;80.70;;;;;;2602788;54;20317;31
2023/05/11 14:38:33;;;;;;;3.27;2.43;;;21.70;80.80;;;;;;2602042;54;20313;31
2023/05/11 14:41:21;;;;;;;7.07;2.50;;;21.70;81.60;;;;;;2602799;54;20141;31
2023/05/11 14:43:58;;;;;;;4.47;2.17;;;21.70;82.40;;;;;;2621605;46;20050;31
2023/05/11 14:46:42;;;;;;;6.18;1.98;;;21.70;82.40;;;;;;2602990;54;20034;31
2023/05/11 14:49:23;;;;;;;4.32;2.08;;;21.60;82.80;;;;;;2621202;46;20057;31
2023/05/11 14:52:00;;;;;;;4.45;1.80;;;21.70;81.20;;;;;;2602973;54;19962;31
2023/05/11 14:54:38;;;;;;;2.53;1.90;;;21.70;82.70;;;;;;2602945;54;20034;31
2023/05/11 14:57:16;;;;;;;4.28;1.80;;;21.60;80.80;;;;;;2602151;54;20938;31
2023/05/11 14:59:59;;;;;;;5.03;1.98;;;21.60;81.20;;;;;;2602068;54;20800;31
2023/05/11 15:02:50;;;;;;;3.63;1.92;;;21.60;81.20;;;;;;2602732;54;20038;31
2023/05/11 15:05:33;;;;;;;4.65;2.15;;;21.60;80.90;;;;;;2602953;54;20897;31
2023/05/11 15:08:19;;;;;;;3.15;1.85;;;21.50;81.90;;;;;;2602619;54;20053;31
2023/05/11 15:11:05;;;;;;;6.65;2.53;;;21.50;81.50;;;;;;2602779;54;20054;31
2023/05/11 15:14:01;;;;;;;3.97;1.95;;;21.50;81.40;;;;;;2602876;54;20029;31
2023/05/11 15:16:59;;;;;;;4.70;2.15;;;21.40;82.00;;;;;;2602925;54;20081;31
2023/05/11 15:19:38;;;;;;;5.00;2.20;;;21.50;82.00;;;;;;2621154;47;20085;31
2023/05/11 15:22:22;;;;;;;3.97;1.90;;;21.40;81.80;;;;;;2602762;54;20069;31
2023/05/11 15:25:04;;;;;;;3.88;1.90;;;21.40;81.20;;;;;;2602607;54;20847;31
2023/05/11 15:27:57;;;;;;;2.53;1.88;;;21.40;82.70;;;;;;2620845;47;20842;31
2023/05/11 15:33:45;;;;;;;6.53;2.17;;;21.40;82.80;;;;;;2601752;54;20989;31
2023/05/11 15:49:04;;;;;;;7.57;1.98;;;21.40;81.00;;;;;;2601794;54;20788;31
2023/05/11 15:51:43;;;;;;;3.40;2.10;;;21.40;81.30;;;;;;2602649;54;20089;31
2023/05/11 15:54:25;;;;;;;3.75;1.85;;;21.40;79.90;;;;;;2621743;46;20907;31
2023/05/11 15:57:05;;;;;;;4.43;2.00;;;21.30;80.00;;;;;;2606079;46;20030;31
2023/05/11 15:59:49;;;;;;;3.47;1.88;;;21.40;79.40;;;;;;2603081;54;20038;31
2023/05/11 16:02:24;;;;;;;3.15;1.95;;;21.30;78.90;;;;;;2603282;54;20877;31
2023/05/11 16:05:06;;;;;;;6.40;1.90;;;21.30;78.90;;;;;;2603128;54;20756;31
2023/05/11 16:07:47;;;;;;;2.80;2.38;;;21.30;79.50;;;;;;2621909;46;20023;31
2023/05/11 16:10:27;;;;;;;4.30;2.00;;;21.30;79.40;;;;;;2603260;54;20050;31
2023/05/11 16:15:42;;;;;;;3.67;2.00;;;21.30;80.40;;;;;;2603189;54;20022;31
2023/05/11 16:21:16;;;;;;;3.58;1.92;;;21.30;79.20;;;;;;2603447;54;20022;31
2023/05/11 16:23:54;;;;;;;4.90;2.03;;;21.20;80.60;;;;;;2603307;54;20043;31
2023/05/11 16:26:34;;;;;;;5.70;2.45;;;21.30;80.00;;;;;;2603273;54;20026;31
2023/05/11 16:29:17;;;;;;;2.63;2.03;;;21.30;80.20;;;;;;2603166;54;20090;31
2023/05/11 16:32:00;;;;;;;5.93;2.63;;;21.30;79.70;;;;;;2603424;54;20050;31
2023/05/11 16:34:48;;;;;;;3.95;1.83;;;21.30;79.50;;;;;;2603245;54;21021;31
2023/05/11 16:37:35;;;;;;;3.88;2.03;;;21.30;79.70;;;;;;2603120;54;20860;31
2023/05/11 16:40:17;;;;;;;4.40;2.25;;;21.20;79.80;;;;;;2621560;46;20082;31
2023/05/11 16:42:57;;;;;;;2.47;1.92;;;21.20;80.90;;;;;;2602329;54;20172;31
2023/05/11 16:45:36;;;;;;;4.65;2.35;;;21.20;81.10;;;;;;2603360;54;20005;31
2023/05/11 16:50:49;;;;;;;3.97;2.08;;;21.10;79.80;;;;;;2602687;54;20027;31
2023/05/11 16:56:36;;;;;;;3.70;2.15;;;21.10;79.70;;;;;;2602338;54;20089;31
2023/05/11 16:59:21;;;;;;;3.95;2.20;;;21.00;80.20;;;;;;2603040;54;19938;31
2023/05/11 17:02:10;;;;;;;6.13;2.20;;;20.90;81.10;;;;;;2603053;54;20030;31
2023/05/11 17:04:52;;;;;;;6.32;1.90;;;20.90;81.40;;;;;;2603157;54;20049;31
2023/05/11 17:07:30;;;;;;;4.88;1.98;;;20.90;81.50;;;;;;2603064;54;20102;31
2023/05/11 17:10:14;;;;;;;4.78;1.85;;;20.90;81.10;;;;;;2608804;39;21403;31
2023/05/11 17:15:57;;;;;;;5.60;2.20;;;20.70;80.70;;;;;;2603064;54;19957;31
2023/05/11 17:18:36;;;;;;;5.53;2.00;;;20.70;80.30;;;;;;2621624;46;20022;31
2023/05/11 17:21:14;;;;;;;3.30;2.33;;;20.60;81.30;;;;;;2618590;39;21515;31
2023/05/11 17:23:52;;;;;;;4.85;1.95;;;20.60;81.00;;;;;;2602904;54;20026;31
2023/05/11 17:26:32;;;;;;;3.53;1.80;;;20.50;81.30;;;;;;2617955;39;20428;31
2023/05/11 17:29:24;;;;;;;4.07;1.90;;;20.40;81.70;;;;;;2603054;54;20097;31
2023/05/11 17:32:05;;;;;;;3.95;2.30;;;20.40;82.00;;;;;;2602165;54;20023;31
2023/05/11 17:34:50;;;;;;;2.50;2.13;;;20.30;81.70;;;;;;2602370;54;20905;31
2023/05/11 17:37:26;;;;;;;3.47;1.80;;;20.20;82.00;;;;;;2601920;54;21086;31
2023/05/11 17:40:12;;;;;;;4.60;2.05;;;20.20;82.20;;;;;;2602086;54;20810;31
2023/05/11 17:42:50;;;;;;;4.30;1.85;;;20.10;82.40;;;;;;2602704;54;20030;31
2023/05/11 17:45:32;;;;;;;4.05;2.08;;;20.00;82.80;;;;;;2603071;54;20770;31
2023/05/11 17:51:03;;;;;;;2.70;1.95;;;20.00;83.40;;;;;;2602867;54;21175;31
2023/05/11 17:53:41;;;;;;;2.70;2.10;;;19.90;83.00;;;;;;2602824;54;20022;31
2023/05/11 17:56:18;;;;;;;5.95;2.08;;;19.80;82.90;;;;;;2602401;54;20961;31
2023/05/11 17:58:56;;;;;;;5.30;2.15;;;19.70;83.00;;;;;;2602851;54;20093;31
2023/05/11 18:01:38;;;;;;;3.60;1.60;;;19.60;82.70;;;;;;2621386;46;20810;31
2023/05/11 18:04:22;;;;;;;8.77;1.73;;;19.60;83.30;;;;;;2602830;54;21490;31
2023/05/11 18:06:59;;;;;;;7.10;2.13;;;19.50;83.10;;;;;;2602714;54;20963;31
2023/05/11 18:09:36;;;;;;;3.90;1.70;;;19.40;83.20;;;;;;2603060;54;20046;31
2023/05/11 18:12:16;;;;;;;5.28;1.90;;;19.40;83.50;;;;;;2602905;54;20033;31
2023/05/11 18:14:59;;;;;;;6.20;1.50;;;19.30;83.60;;;;;;2602232;54;20033;31
2023/05/11 18:17:56;;;;;;;3.22;2.03;;;19.20;83.70;;;;;;2602937;54;20026;31
2023/05/11 18:20:36;;;;;;;4.50;1.80;;;19.10;84.20;;;;;;2603007;54;20026;31
2023/05/11 18:23:15;;;;;;;15.15;2.40;;;19.00;84.00;;;;;;2603058;54;20030;31
2023/05/11 18:25:53;;;;;;;6.03;2.05;;;19.00;84.40;;;;;;2603054;54;20839;31
2023/05/11 18:28:35;;;;;;;3.47;1.60;;;18.90;84.70;;;;;;2602652;54;20030;31
2023/05/11 18:31:13;;;;;;;6.63;1.88;;;18.80;85.00;;;;;;2602956;54;20085;31
2023/05/11 18:33:47;;;;;;;3.25;2.28;;;18.70;85.50;;;;;;2602787;54;22215;31
2023/05/11 18:36:28;;;;;;;5.80;2.17;;;18.60;85.40;;;;;;2602666;54;20916;31
2023/05/11 18:39:07;;;;;;;7.05;2.30;;;18.60;85.90;;;;;;2602688;54;20930;31
2023/05/11 18:41:42;;;;;;;4.70;1.90;;;18.50;86.00;;;;;;2619060;46;19931;31
2023/05/11 18:44:21;;;;;;;5.77;2.57;;;18.40;86.20;;;;;;2602623;54;20022;31
2023/05/11 18:46:56;;;;;;;11.20;2.00;;;18.30;86.50;;;;;;2603009;54;20069;31
2023/05/11 18:49:31;;;;;;;6.40;2.10;;;18.30;86.80;;;;;;2606473;46;20084;31
2023/05/11 18:52:11;;;;;;;3.97;2.13;;;18.10;87.10;;;;;;2602662;54;20768;31
2023/05/11 18:54:46;;;;;;;7.18;1.95;;;18.10;87.40;;;;;;2621102;46;20869;31
2023/05/11 18:57:21;;;;;;;3.67;2.10;;;18.00;87.40;;;;;;2602597;54;19950;31
2023/05/11 18:59:55;;;;;;;2.58;1.92;;;18.00;87.50;;;;;;2603024;54;20069;31
2023/05/11 19:02:31;;;;;;;5.20;2.17;;;17.90;87.30;;;;;;2602617;54;20859;31
2023/05/11 19:05:12;;;;;;;3.80;2.45;;;17.80;87.30;;;;;;2602765;54;20058;31
2023/05/11 19:07:51;;;;;;;4.70;3.45;;;17.70;87.50;;;;;;2620908;46;20030;31
2023/05/11 19:10:28;;;;;;;5.85;2.30;;;17.70;87.60;;;;;;2602774;54;20924;31
2023/05/11 19:13:08;;;;;;;3.95;2.33;;;17.70;87.90;;;;;;2620860;46;20204;31
2023/05/11 19:15:44;;;;;;;7.47;2.20;;;17.50;87.80;;;;;;2625409;39;21526;31
2023/05/11 19:18:19;;;;;;;4.05;2.35;;;17.50;88.20;;;;;;2602359;54;20092;31
2023/05/11 19:20:54;;;;;;;9.30;2.37;;;17.40;88.10;;;;;;2626186;39;21506;31
2023/05/11 19:26:29;;;;;;;6.20;2.50;;;17.30;88.40;;;;;;2603403;54;20026;31
2023/05/11 19:29:08;;;;;;;4.43;2.40;;;17.30;88.60;;;;;;2603479;54;20897;31
2023/05/11 19:31:44;;;;;;;4.32;2.10;;;17.20;88.50;;;;;;2603399;54;20030;31
2023/05/11 19:34:20;;;;;;;6.30;2.42;;;17.10;88.50;;;;;;2607920;39;20412;31
2023/05/11 19:36:55;;;;;;;7.25;2.60;;;17.00;88.40;;;;;;2603212;54;20825;31
2023/05/11 19:39:35;;;;;;;7.95;2.00;;;17.00;88.50;;;;;;2603227;54;20042;31
2023/05/11 19:42:15;;;;;;;7.13;2.53;;;17.00;88.50;;;;;;2603337;54;20042;31
2023/05/11 19:44:57;;;;;;;9.52;2.67;;;16.90;91.50;;;;;;2603476;54;20085;31
2023/05/11 19:47:37;;;;;;;4.88;2.63;;;16.90;90.40;;;;;;2603262;54;20046;31
2023/05/11 19:50:17;;;;;;;7.35;2.42;;;16.90;89.50;;;;;;2603536;54;20785;31
2023/05/11 19:53:00;;;;;;;5.40;2.35;;;16.80;89.10;;;;;;2602600;54;20961;31
2023/05/11 19:55:38;;;;;;;4.28;2.40;;;16.80;89.20;;;;;;2603262;54;20505;31
2023/05/11 19:58:19;;;;;;;5.88;2.60;;;16.70;89.50;;;;;;2617439;39;20457;31
2023/05/11 20:00:58;;;;;;;7.28;2.67;;;16.70;89.50;;;;;;2603262;54;20113;31